sensor_id;sensor_type;location;lat;lon;timestamp;temperature;humidity
41256;DHT22;26989;45.524;10.938;2023-12-28T00:00:14;7.90;99.90
41256;DHT22;26989;45.524;10.938;2023-12-28T00:02:41;7.90;99.90
41256;DHT22;26989;45.524;10.938;2023-12-28T00:05:08;7.90;99.90
41256;DHT22;26989;45.524;10.938;2023-12-28T00:07:35;7.90;99.90
41256;DHT22;26989;45.524;10.938;2023-12-28T00:10:03;7.90;99.90
41256;DHT22;26989;45.524;10.938;2023-12-28T00:12:30;7.90;99.90
41256;DHT22;26989;45.524;10.938;2023-12-28T00:14:57;8.00;99.90
41256;DHT22;26989;45.524;10.938;2023-12-28T00:17:24;7.90;99.90
41256;DHT22;26989;45.524;10.938;2023-12-28T00:19:51;8.00;99.90
41256;DHT22;26989;45.524;10.938;2023-12-28T00:22:18;7.90;99.90
41256;DHT22;26989;45.524;10.938;2023-12-28T00:24:45;7.90;99.90
41256;DHT22;26989;45.524;10.938;2023-12-28T00:27:12;7.90;99.90
41256;DHT22;26989;45.524;10.938;2023-12-28T00:29:39;7.90;99.90
41256;DHT22;26989;45.524;10.938;2023-12-28T00:32:08;7.90;99.90
41256;DHT22;26989;45.524;10.938;2023-12-28T00:34:36;7.80;99.90
41256;DHT22;26989;45.524;10.938;2023-12-28T00:37:03;7.80;99.90
41256;DHT22;26989;45.524;10.938;2023-12-28T00:39:30;7.70;99.90
41256;DHT22;26989;45.524;10.938;2023-12-28T00:41:57;7.70;99.90
41256;DHT22;26989;45.524;10.938;2023-12-28T00:44:24;7.60;99.90
41256;DHT22;26989;45.524;10.938;2023-12-28T00:46:51;7.60;99.90
41256;DHT22;26989;45.524;10.938;2023-12-28T00:49:18;7.60;99.90
41256;DHT22;26989;45.524;10.938;2023-12-28T00:51:45;7.50;99.90
41256;DHT22;26989;45.524;10.938;2023-12-28T00:54:12;7.50;99.90
41256;DHT22;26989;45.524;10.938;2023-12-28T00:56:39;7.40;99.90
41256;DHT22;26989;45.524;10.938;2023-12-28T00:59:06;7.30;99.90
41256;DHT22;26989;45.524;10.938;2023-12-28T01:01:32;7.30;99.90
41256;DHT22;26989;45.524;10.938;2023-12-28T01:03:59;7.30;99.90
41256;DHT22;26989;45.524;10.938;2023-12-28T01:06:26;7.30;99.90
41256;DHT22;26989;45.524;10.938;2023-12-28T01:08:55;7.40;99.90
41256;DHT22;26989;45.524;10.938;2023-12-28T01:11:22;7.30;99.90
41256;DHT22;26989;45.524;10.938;2023-12-28T01:13:51;7.30;99.90
41256;DHT22;26989;45.524;10.938;2023-12-28T01:16:18;7.30;99.90
41256;DHT22;26989;45.524;10.938;2023-12-28T01:18:45;7.30;99.90
41256;DHT22;26989;45.524;10.938;2023-12-28T01:21:12;7.30;99.90
41256;DHT22;26989;45.524;10.938;2023-12-28T01:23:39;7.40;99.90
41256;DHT22;26989;45.524;10.938;2023-12-28T01:26:06;7.40;99.90
41256;DHT22;26989;45.524;10.938;2023-12-28T01:28:38;7.40;99.90
41256;DHT22;26989;45.524;10.938;2023-12-28T01:31:05;7.40;99.90
41256;DHT22;26989;45.524;10.938;2023-12-28T01:33:32;7.40;99.90
41256;DHT22;26989;45.524;10.938;2023-12-28T01:35:59;7.50;99.90
41256;DHT22;26989;45.524;10.938;2023-12-28T01:38:26;7.40;99.90
41256;DHT22;26989;45.524;10.938;2023-12-28T01:40:53;7.40;99.90
41256;DHT22;26989;45.524;10.938;2023-12-28T01:43:22;7.40;99.90
41256;DHT22;26989;45.524;10.938;2023-12-28T01:45:49;7.40;99.90
41256;DHT22;26989;45.524;10.938;2023-12-28T01:48:16;7.40;99.90
41256;DHT22;26989;45.524;10.938;2023-12-28T01:50:44;7.40;99.90
41256;DHT22;26989;45.524;10.938;2023-12-28T01:53:11;7.50;99.90
41256;DHT22;26989;45.524;10.938;2023-12-28T01:55:38;7.50;99.90
41256;DHT22;26989;45.524;10.938;2023-12-28T01:58:05;7.40;99.90
41256;DHT22;26989;45.524;10.938;2023-12-28T02:00:32;7.40;99.90
41256;DHT22;26989;45.524;10.938;2023-12-28T02:03:02;7.40;99.90
41256;DHT22;26989;45.524;10.938;2023-12-28T02:05:29;7.50;99.90
41256;DHT22;26989;45.524;10.938;2023-12-28T02:07:56;7.60;99.90
41256;DHT22;26989;45.524;10.938;2023-12-28T02:10:24;7.70;99.90
41256;DHT22;26989;45.524;10.938;2023-12-28T02:12:51;7.70;99.90
41256;DHT22;26989;45.524;10.938;2023-12-28T02:15:20;7.70;99.90
41256;DHT22;26989;45.524;10.938;2023-12-28T02:18:05;7.70;99.90
41256;DHT22;26989;45.524;10.938;2023-12-28T02:20:35;7.70;99.90
41256;DHT22;26989;45.524;10.938;2023-12-28T02:23:02;7.70;99.90
41256;DHT22;26989;45.524;10.938;2023-12-28T02:25:29;7.70;99.90
41256;DHT22;26989;45.524;10.938;2023-12-28T02:27:56;7.70;99.90
41256;DHT22;26989;45.524;10.938;2023-12-28T02:30:24;7.60;99.90
41256;DHT22;26989;45.524;10.938;2023-12-28T02:33:03;7.60;99.90
41256;DHT22;26989;45.524;10.938;2023-12-28T02:35:37;7.50;99.90
41256;DHT22;26989;45.524;10.938;2023-12-28T02:38:09;7.50;99.90
41256;DHT22;26989;45.524;10.938;2023-12-28T02:40:37;7.50;99.90
41256;DHT22;26989;45.524;10.938;2023-12-28T02:43:06;7.50;99.90
41256;DHT22;26989;45.524;10.938;2023-12-28T02:45:34;7.50;99.90
41256;DHT22;26989;45.524;10.938;2023-12-28T02:48:02;7.50;99.90
41256;DHT22;26989;45.524;10.938;2023-12-28T02:50:30;7.50;99.90
41256;DHT22;26989;45.524;10.938;2023-12-28T02:52:57;7.40;99.90
41256;DHT22;26989;45.524;10.938;2023-12-28T02:55:24;7.40;99.90
41256;DHT22;26989;45.524;10.938;2023-12-28T02:57:53;7.40;99.90
41256;DHT22;26989;45.524;10.938;2023-12-28T03:00:27;7.40;99.90
41256;DHT22;26989;45.524;10.938;2023-12-28T03:02:55;7.40;99.90
41256;DHT22;26989;45.524;10.938;2023-12-28T03:05:22;7.40;99.90
41256;DHT22;26989;45.524;10.938;2023-12-28T03:07:49;7.40;99.90
41256;DHT22;26989;45.524;10.938;2023-12-28T03:10:17;7.40;99.90
41256;DHT22;26989;45.524;10.938;2023-12-28T03:12:44;7.50;99.90
41256;DHT22;26989;45.524;10.938;2023-12-28T03:15:11;7.50;99.90
41256;DHT22;26989;45.524;10.938;2023-12-28T03:17:38;7.50;99.90
41256;DHT22;26989;45.524;10.938;2023-12-28T03:20:06;7.50;99.90
41256;DHT22;26989;45.524;10.938;2023-12-28T03:22:33;7.40;99.90
41256;DHT22;26989;45.524;10.938;2023-12-28T03:25:00;7.40;99.90
41256;DHT22;26989;45.524;10.938;2023-12-28T03:27:27;7.40;99.90
41256;DHT22;26989;45.524;10.938;2023-12-28T03:29:54;7.40;99.90
41256;DHT22;26989;45.524;10.938;2023-12-28T03:32:21;7.40;99.90
41256;DHT22;26989;45.524;10.938;2023-12-28T03:34:48;7.50;99.90
41256;DHT22;26989;45.524;10.938;2023-12-28T03:37:14;7.50;99.90
41256;DHT22;26989;45.524;10.938;2023-12-28T03:39:42;7.60;99.90
41256;DHT22;26989;45.524;10.938;2023-12-28T03:42:09;7.60;99.90
41256;DHT22;26989;45.524;10.938;2023-12-28T03:44:36;7.60;99.90
41256;DHT22;26989;45.524;10.938;2023-12-28T03:47:03;7.60;99.90
41256;DHT22;26989;45.524;10.938;2023-12-28T03:49:30;7.50;99.90
41256;DHT22;26989;45.524;10.938;2023-12-28T03:51:57;7.50;99.90
41256;DHT22;26989;45.524;10.938;2023-12-28T03:54:24;7.50;99.90
41256;DHT22;26989;45.524;10.938;2023-12-28T03:56:51;7.60;99.90
41256;DHT22;26989;45.524;10.938;2023-12-28T03:59:18;7.60;99.90
41256;DHT22;26989;45.524;10.938;2023-12-28T04:01:45;7.70;99.90
41256;DHT22;26989;45.524;10.938;2023-12-28T04:04:12;7.70;99.90
41256;DHT22;26989;45.524;10.938;2023-12-28T04:06:40;7.70;99.90
41256;DHT22;26989;45.524;10.938;2023-12-28T04:09:11;7.60;99.90
41256;DHT22;26989;45.524;10.938;2023-12-28T04:11:38;7.60;99.90
41256;DHT22;26989;45.524;10.938;2023-12-28T04:14:05;7.50;99.90
41256;DHT22;26989;45.524;10.938;2023-12-28T04:16:32;7.60;99.90
41256;DHT22;26989;45.524;10.938;2023-12-28T04:18:59;7.60;99.90
41256;DHT22;26989;45.524;10.938;2023-12-28T04:21:26;7.60;99.90
41256;DHT22;26989;45.524;10.938;2023-12-28T04:23:53;7.60;99.90
41256;DHT22;26989;45.524;10.938;2023-12-28T04:26:20;7.60;99.90
41256;DHT22;26989;45.524;10.938;2023-12-28T04:28:49;7.60;99.90
41256;DHT22;26989;45.524;10.938;2023-12-28T04:31:16;7.60;99.90
41256;DHT22;26989;45.524;10.938;2023-12-28T04:33:43;7.70;99.90
41256;DHT22;26989;45.524;10.938;2023-12-28T04:36:10;7.70;99.90
41256;DHT22;26989;45.524;10.938;2023-12-28T04:38:37;7.70;99.90
41256;DHT22;26989;45.524;10.938;2023-12-28T04:41:06;7.60;99.90
41256;DHT22;26989;45.524;10.938;2023-12-28T04:43:32;7.70;99.90
41256;DHT22;26989;45.524;10.938;2023-12-28T04:46:03;7.60;99.90
41256;DHT22;26989;45.524;10.938;2023-12-28T04:48:34;7.60;99.90
41256;DHT22;26989;45.524;10.938;2023-12-28T04:51:05;7.70;99.90
41256;DHT22;26989;45.524;10.938;2023-12-28T04:53:31;7.70;99.90
41256;DHT22;26989;45.524;10.938;2023-12-28T04:55:59;7.80;99.90
41256;DHT22;26989;45.524;10.938;2023-12-28T04:58:26;7.70;99.90
41256;DHT22;26989;45.524;10.938;2023-12-28T05:00:53;7.70;99.90
41256;DHT22;26989;45.524;10.938;2023-12-28T05:03:20;7.70;99.90
41256;DHT22;26989;45.524;10.938;2023-12-28T05:05:48;7.80;99.90
41256;DHT22;26989;45.524;10.938;2023-12-28T05:08:15;7.80;99.90
41256;DHT22;26989;45.524;10.938;2023-12-28T05:10:48;7.70;99.90
41256;DHT22;26989;45.524;10.938;2023-12-28T05:13:19;7.80;99.90
41256;DHT22;26989;45.524;10.938;2023-12-28T05:15:49;7.70;99.90
41256;DHT22;26989;45.524;10.938;2023-12-28T05:18:21;7.70;99.90
41256;DHT22;26989;45.524;10.938;2023-12-28T05:20:49;7.70;99.90
41256;DHT22;26989;45.524;10.938;2023-12-28T05:23:19;7.80;99.90
41256;DHT22;26989;45.524;10.938;2023-12-28T05:25:49;7.80;99.90
41256;DHT22;26989;45.524;10.938;2023-12-28T05:28:17;7.80;99.90
41256;DHT22;26989;45.524;10.938;2023-12-28T05:30:50;7.80;99.90
41256;DHT22;26989;45.524;10.938;2023-12-28T05:33:26;7.70;99.90
41256;DHT22;26989;45.524;10.938;2023-12-28T05:35:53;7.80;99.90
41256;DHT22;26989;45.524;10.938;2023-12-28T05:38:21;7.70;99.90
41256;DHT22;26989;45.524;10.938;2023-12-28T05:40:47;7.70;99.90
41256;DHT22;26989;45.524;10.938;2023-12-28T05:43:14;7.70;99.90
41256;DHT22;26989;45.524;10.938;2023-12-28T05:45:57;7.70;99.90
41256;DHT22;26989;45.524;10.938;2023-12-28T05:48:51;7.70;99.90
41256;DHT22;26989;45.524;10.938;2023-12-28T05:51:18;7.70;99.90
41256;DHT22;26989;45.524;10.938;2023-12-28T05:53:45;7.70;99.90
41256;DHT22;26989;45.524;10.938;2023-12-28T05:56:12;7.70;99.90
41256;DHT22;26989;45.524;10.938;2023-12-28T05:58:39;7.60;99.90
41256;DHT22;26989;45.524;10.938;2023-12-28T06:01:07;7.60;99.90
41256;DHT22;26989;45.524;10.938;2023-12-28T06:03:34;7.60;99.90
41256;DHT22;26989;45.524;10.938;2023-12-28T06:06:02;7.60;99.90
41256;DHT22;26989;45.524;10.938;2023-12-28T06:08:45;7.60;99.90
41256;DHT22;26989;45.524;10.938;2023-12-28T06:11:19;7.50;99.90
41256;DHT22;26989;45.524;10.938;2023-12-28T06:13:49;7.50;99.90
41256;DHT22;26989;45.524;10.938;2023-12-28T06:16:16;7.50;99.90
41256;DHT22;26989;45.524;10.938;2023-12-28T06:18:44;7.50;99.90
41256;DHT22;26989;45.524;10.938;2023-12-28T06:21:11;7.50;99.90
41256;DHT22;26989;45.524;10.938;2023-12-28T06:23:39;7.50;99.90
41256;DHT22;26989;45.524;10.938;2023-12-28T06:26:06;7.50;99.90
41256;DHT22;26989;45.524;10.938;2023-12-28T06:28:33;7.40;99.90
41256;DHT22;26989;45.524;10.938;2023-12-28T06:31:00;7.40;99.90
41256;DHT22;26989;45.524;10.938;2023-12-28T06:33:28;7.40;99.90
41256;DHT22;26989;45.524;10.938;2023-12-28T06:35:55;7.40;99.90
41256;DHT22;26989;45.524;10.938;2023-12-28T06:38:25;7.40;99.90
41256;DHT22;26989;45.524;10.938;2023-12-28T06:40:52;7.40;99.90
41256;DHT22;26989;45.524;10.938;2023-12-28T06:43:19;7.40;99.90
41256;DHT22;26989;45.524;10.938;2023-12-28T06:45:46;7.40;99.90
41256;DHT22;26989;45.524;10.938;2023-12-28T06:48:13;7.40;99.90
41256;DHT22;26989;45.524;10.938;2023-12-28T06:50:40;7.50;99.90
41256;DHT22;26989;45.524;10.938;2023-12-28T06:53:08;7.50;99.90
41256;DHT22;26989;45.524;10.938;2023-12-28T06:55:35;7.40;99.90
41256;DHT22;26989;45.524;10.938;2023-12-28T06:58:02;7.50;99.90
41256;DHT22;26989;45.524;10.938;2023-12-28T07:00:30;7.50;99.90
41256;DHT22;26989;45.524;10.938;2023-12-28T07:02:57;7.50;99.90
41256;DHT22;26989;45.524;10.938;2023-12-28T07:05:24;7.50;99.90
41256;DHT22;26989;45.524;10.938;2023-12-28T07:07:51;7.50;99.90
41256;DHT22;26989;45.524;10.938;2023-12-28T07:10:18;7.50;99.90
41256;DHT22;26989;45.524;10.938;2023-12-28T07:12:45;7.60;99.90
41256;DHT22;26989;45.524;10.938;2023-12-28T07:15:12;7.60;99.90
41256;DHT22;26989;45.524;10.938;2023-12-28T07:17:41;7.60;99.90
41256;DHT22;26989;45.524;10.938;2023-12-28T07:20:12;7.60;99.90
41256;DHT22;26989;45.524;10.938;2023-12-28T07:22:39;7.60;99.90
41256;DHT22;26989;45.524;10.938;2023-12-28T07:25:07;7.60;99.90
41256;DHT22;26989;45.524;10.938;2023-12-28T07:27:34;7.60;99.90
41256;DHT22;26989;45.524;10.938;2023-12-28T07:30:01;7.70;99.90
41256;DHT22;26989;45.524;10.938;2023-12-28T07:32:29;7.70;99.90
41256;DHT22;26989;45.524;10.938;2023-12-28T07:34:56;7.70;99.90
41256;DHT22;26989;45.524;10.938;2023-12-28T07:37:23;7.60;99.90
41256;DHT22;26989;45.524;10.938;2023-12-28T07:39:50;7.70;99.90
41256;DHT22;26989;45.524;10.938;2023-12-28T07:42:20;7.70;99.90
41256;DHT22;26989;45.524;10.938;2023-12-28T07:44:53;7.70;99.90
41256;DHT22;26989;45.524;10.938;2023-12-28T07:47:20;7.70;99.90
41256;DHT22;26989;45.524;10.938;2023-12-28T07:49:48;7.90;99.90
41256;DHT22;26989;45.524;10.938;2023-12-28T07:52:21;7.80;99.90
41256;DHT22;26989;45.524;10.938;2023-12-28T07:54:48;7.90;99.90
41256;DHT22;26989;45.524;10.938;2023-12-28T07:57:20;7.90;99.90
41256;DHT22;26989;45.524;10.938;2023-12-28T07:59:51;7.90;99.90
41256;DHT22;26989;45.524;10.938;2023-12-28T08:02:22;7.90;99.90
41256;DHT22;26989;45.524;10.938;2023-12-28T08:05:00;7.90;99.90
41256;DHT22;26989;45.524;10.938;2023-12-28T08:07:30;7.90;99.90
41256;DHT22;26989;45.524;10.938;2023-12-28T08:10:05;7.90;99.90
41256;DHT22;26989;45.524;10.938;2023-12-28T08:12:34;7.90;99.90
41256;DHT22;26989;45.524;10.938;2023-12-28T08:15:01;7.70;99.90
41256;DHT22;26989;45.524;10.938;2023-12-28T08:17:29;7.60;99.90
41256;DHT22;26989;45.524;10.938;2023-12-28T08:20:08;7.70;99.90
41256;DHT22;26989;45.524;10.938;2023-12-28T08:22:53;7.70;99.90
41256;DHT22;26989;45.524;10.938;2023-12-28T08:25:43;7.70;99.90
41256;DHT22;26989;45.524;10.938;2023-12-28T08:28:11;7.80;99.90
41256;DHT22;26989;45.524;10.938;2023-12-28T08:30:38;7.70;99.90
41256;DHT22;26989;45.524;10.938;2023-12-28T08:33:05;7.80;99.90
41256;DHT22;26989;45.524;10.938;2023-12-28T08:35:33;7.90;99.90
41256;DHT22;26989;45.524;10.938;2023-12-28T08:38:00;7.90;99.90
41256;DHT22;26989;45.524;10.938;2023-12-28T08:40:27;8.00;99.90
41256;DHT22;26989;45.524;10.938;2023-12-28T08:42:54;8.10;99.90
41256;DHT22;26989;45.524;10.938;2023-12-28T08:45:21;8.20;99.90
41256;DHT22;26989;45.524;10.938;2023-12-28T08:47:48;8.40;99.90
41256;DHT22;26989;45.524;10.938;2023-12-28T08:50:15;8.40;99.90
41256;DHT22;26989;45.524;10.938;2023-12-28T08:52:42;8.50;99.90
41256;DHT22;26989;45.524;10.938;2023-12-28T08:55:09;8.50;99.90
41256;DHT22;26989;45.524;10.938;2023-12-28T08:57:35;8.50;99.90
41256;DHT22;26989;45.524;10.938;2023-12-28T09:00:09;8.60;99.90
41256;DHT22;26989;45.524;10.938;2023-12-28T09:02:37;8.60;99.90
41256;DHT22;26989;45.524;10.938;2023-12-28T09:05:06;8.60;99.90
41256;DHT22;26989;45.524;10.938;2023-12-28T09:07:39;8.60;99.90
41256;DHT22;26989;45.524;10.938;2023-12-28T09:10:11;8.70;99.90
41256;DHT22;26989;45.524;10.938;2023-12-28T09:12:40;8.70;99.90
41256;DHT22;26989;45.524;10.938;2023-12-28T09:15:07;8.80;99.90
41256;DHT22;26989;45.524;10.938;2023-12-28T09:17:35;8.90;99.90
41256;DHT22;26989;45.524;10.938;2023-12-28T09:20:03;9.00;99.90
41256;DHT22;26989;45.524;10.938;2023-12-28T09:22:30;9.10;99.90
41256;DHT22;26989;45.524;10.938;2023-12-28T09:24:57;9.10;99.90
41256;DHT22;26989;45.524;10.938;2023-12-28T09:27:24;9.00;99.90
41256;DHT22;26989;45.524;10.938;2023-12-28T09:29:52;9.10;99.90
41256;DHT22;26989;45.524;10.938;2023-12-28T09:32:19;9.10;99.90
41256;DHT22;26989;45.524;10.938;2023-12-28T09:34:46;9.10;99.90
41256;DHT22;26989;45.524;10.938;2023-12-28T09:37:13;9.10;99.90
41256;DHT22;26989;45.524;10.938;2023-12-28T09:39:40;9.20;99.90
41256;DHT22;26989;45.524;10.938;2023-12-28T09:42:26;9.10;99.90
41256;DHT22;26989;45.524;10.938;2023-12-28T09:44:56;9.20;99.90
41256;DHT22;26989;45.524;10.938;2023-12-28T09:47:23;9.20;99.90
41256;DHT22;26989;45.524;10.938;2023-12-28T09:49:50;9.10;99.90
41256;DHT22;26989;45.524;10.938;2023-12-28T09:52:18;9.00;99.90
41256;DHT22;26989;45.524;10.938;2023-12-28T09:54:45;9.10;99.90
41256;DHT22;26989;45.524;10.938;2023-12-28T09:57:12;9.10;99.90
41256;DHT22;26989;45.524;10.938;2023-12-28T09:59:39;9.10;99.90
41256;DHT22;26989;45.524;10.938;2023-12-28T10:02:10;9.10;99.90
41256;DHT22;26989;45.524;10.938;2023-12-28T10:04:37;9.10;99.90
41256;DHT22;26989;45.524;10.938;2023-12-28T10:07:05;9.00;99.90
41256;DHT22;26989;45.524;10.938;2023-12-28T10:09:32;9.10;99.90
41256;DHT22;26989;45.524;10.938;2023-12-28T10:11:59;9.10;99.90
41256;DHT22;26989;45.524;10.938;2023-12-28T10:14:26;9.10;99.90
41256;DHT22;26989;45.524;10.938;2023-12-28T10:16:53;9.10;99.90
41256;DHT22;26989;45.524;10.938;2023-12-28T10:19:23;9.00;99.90
41256;DHT22;26989;45.524;10.938;2023-12-28T10:21:50;9.10;99.90
41256;DHT22;26989;45.524;10.938;2023-12-28T10:24:18;9.10;99.90
41256;DHT22;26989;45.524;10.938;2023-12-28T10:26:45;9.10;99.90
41256;DHT22;26989;45.524;10.938;2023-12-28T10:29:12;9.10;99.90
41256;DHT22;26989;45.524;10.938;2023-12-28T10:31:43;9.10;99.90
41256;DHT22;26989;45.524;10.938;2023-12-28T10:34:12;9.30;99.90
41256;DHT22;26989;45.524;10.938;2023-12-28T10:36:40;9.40;99.90
41256;DHT22;26989;45.524;10.938;2023-12-28T10:39:10;9.40;99.90
41256;DHT22;26989;45.524;10.938;2023-12-28T10:41:41;9.40;99.90
41256;DHT22;26989;45.524;10.938;2023-12-28T10:44:12;9.50;99.90
41256;DHT22;26989;45.524;10.938;2023-12-28T10:46:41;9.50;99.90
41256;DHT22;26989;45.524;10.938;2023-12-28T10:49:16;9.60;99.90
41256;DHT22;26989;45.524;10.938;2023-12-28T10:51:44;9.60;99.90
41256;DHT22;26989;45.524;10.938;2023-12-28T10:54:32;9.80;99.90
41256;DHT22;26989;45.524;10.938;2023-12-28T10:57:16;9.90;99.90
41256;DHT22;26989;45.524;10.938;2023-12-28T11:00:09;9.90;99.90
41256;DHT22;26989;45.524;10.938;2023-12-28T11:02:48;9.90;99.90
41256;DHT22;26989;45.524;10.938;2023-12-28T11:05:21;10.00;99.90
41256;DHT22;26989;45.524;10.938;2023-12-28T11:07:50;9.90;99.90
41256;DHT22;26989;45.524;10.938;2023-12-28T11:10:22;10.00;99.90
41256;DHT22;26989;45.524;10.938;2023-12-28T11:12:54;10.10;99.90
41256;DHT22;26989;45.524;10.938;2023-12-28T11:15:23;10.30;99.90
41256;DHT22;26989;45.524;10.938;2023-12-28T11:17:51;10.50;99.90
41256;DHT22;26989;45.524;10.938;2023-12-28T11:20:18;10.60;99.90
41256;DHT22;26989;45.524;10.938;2023-12-28T11:22:46;10.50;99.90
41256;DHT22;26989;45.524;10.938;2023-12-28T11:25:17;10.70;99.90
41256;DHT22;26989;45.524;10.938;2023-12-28T11:27:46;10.80;99.90
41256;DHT22;26989;45.524;10.938;2023-12-28T11:30:13;10.90;99.90
41256;DHT22;26989;45.524;10.938;2023-12-28T11:32:42;10.80;99.90
41256;DHT22;26989;45.524;10.938;2023-12-28T11:35:14;10.70;99.90
41256;DHT22;26989;45.524;10.938;2023-12-28T11:37:48;10.90;99.90
41256;DHT22;26989;45.524;10.938;2023-12-28T11:40:18;10.90;99.90
41256;DHT22;26989;45.524;10.938;2023-12-28T11:42:51;10.90;99.90
41256;DHT22;26989;45.524;10.938;2023-12-28T11:45:20;11.00;99.90
41256;DHT22;26989;45.524;10.938;2023-12-28T11:47:59;11.00;99.90
41256;DHT22;26989;45.524;10.938;2023-12-28T11:50:27;11.00;99.90
41256;DHT22;26989;45.524;10.938;2023-12-28T11:52:54;10.80;99.90
41256;DHT22;26989;45.524;10.938;2023-12-28T11:55:21;10.80;99.90
41256;DHT22;26989;45.524;10.938;2023-12-28T11:57:50;10.90;99.90
41256;DHT22;26989;45.524;10.938;2023-12-28T12:00:17;11.00;99.90
41256;DHT22;26989;45.524;10.938;2023-12-28T12:02:44;11.10;99.90
41256;DHT22;26989;45.524;10.938;2023-12-28T12:05:17;11.10;99.90
41256;DHT22;26989;45.524;10.938;2023-12-28T12:07:44;11.20;99.90
41256;DHT22;26989;45.524;10.938;2023-12-28T12:10:15;11.30;99.90
41256;DHT22;26989;45.524;10.938;2023-12-28T12:12:43;11.20;99.90
41256;DHT22;26989;45.524;10.938;2023-12-28T12:15:10;11.10;99.90
41256;DHT22;26989;45.524;10.938;2023-12-28T12:17:38;11.00;99.90
41256;DHT22;26989;45.524;10.938;2023-12-28T12:20:08;11.00;99.90
41256;DHT22;26989;45.524;10.938;2023-12-28T12:22:36;11.00;99.90
41256;DHT22;26989;45.524;10.938;2023-12-28T12:25:04;11.10;99.90
41256;DHT22;26989;45.524;10.938;2023-12-28T12:27:32;11.30;99.90
41256;DHT22;26989;45.524;10.938;2023-12-28T12:29:59;11.20;99.90
41256;DHT22;26989;45.524;10.938;2023-12-28T12:32:26;11.20;99.90
41256;DHT22;26989;45.524;10.938;2023-12-28T12:34:53;11.10;99.90
41256;DHT22;26989;45.524;10.938;2023-12-28T12:37:21;11.10;99.90
41256;DHT22;26989;45.524;10.938;2023-12-28T12:39:48;11.20;99.90
41256;DHT22;26989;45.524;10.938;2023-12-28T12:42:15;11.20;99.90
41256;DHT22;26989;45.524;10.938;2023-12-28T12:44:43;11.10;99.90
41256;DHT22;26989;45.524;10.938;2023-12-28T12:47:10;11.20;99.90
41256;DHT22;26989;45.524;10.938;2023-12-28T12:49:37;11.20;99.90
41256;DHT22;26989;45.524;10.938;2023-12-28T12:52:07;11.10;99.90
41256;DHT22;26989;45.524;10.938;2023-12-28T12:54:34;11.10;99.90
41256;DHT22;26989;45.524;10.938;2023-12-28T12:57:01;11.00;99.90
41256;DHT22;26989;45.524;10.938;2023-12-28T12:59:29;11.10;99.90
41256;DHT22;26989;45.524;10.938;2023-12-28T13:01:57;11.10;99.90
41256;DHT22;26989;45.524;10.938;2023-12-28T13:04:24;11.10;99.90
41256;DHT22;26989;45.524;10.938;2023-12-28T13:06:51;11.30;99.90
41256;DHT22;26989;45.524;10.938;2023-12-28T13:09:18;11.30;99.90
41256;DHT22;26989;45.524;10.938;2023-12-28T13:11:45;11.30;99.90
41256;DHT22;26989;45.524;10.938;2023-12-28T13:14:16;11.30;99.90
41256;DHT22;26989;45.524;10.938;2023-12-28T13:16:42;11.20;99.90
41256;DHT22;26989;45.524;10.938;2023-12-28T13:19:10;11.10;99.90
41256;DHT22;26989;45.524;10.938;2023-12-28T13:21:37;11.10;99.90
41256;DHT22;26989;45.524;10.938;2023-12-28T13:24:04;10.90;99.90
41256;DHT22;26989;45.524;10.938;2023-12-28T13:26:32;10.90;99.90
41256;DHT22;26989;45.524;10.938;2023-12-28T13:28:59;10.80;99.90
41256;DHT22;26989;45.524;10.938;2023-12-28T13:31:28;10.80;99.90
41256;DHT22;26989;45.524;10.938;2023-12-28T13:33:55;10.80;99.90
41256;DHT22;26989;45.524;10.938;2023-12-28T13:36:23;10.70;99.90
41256;DHT22;26989;45.524;10.938;2023-12-28T13:38:50;10.60;99.90
41256;DHT22;26989;45.524;10.938;2023-12-28T13:41:16;10.60;99.90
41256;DHT22;26989;45.524;10.938;2023-12-28T13:43:43;10.60;99.90
41256;DHT22;26989;45.524;10.938;2023-12-28T13:46:10;10.70;99.90
41256;DHT22;26989;45.524;10.938;2023-12-28T13:48:37;10.70;99.90
41256;DHT22;26989;45.524;10.938;2023-12-28T13:51:07;10.80;99.90
41256;DHT22;26989;45.524;10.938;2023-12-28T13:53:34;10.80;99.90
41256;DHT22;26989;45.524;10.938;2023-12-28T13:56:07;10.80;99.90
41256;DHT22;26989;45.524;10.938;2023-12-28T13:58:37;10.80;99.90
41256;DHT22;26989;45.524;10.938;2023-12-28T14:01:03;10.80;99.90
41256;DHT22;26989;45.524;10.938;2023-12-28T14:03:31;10.80;99.90
41256;DHT22;26989;45.524;10.938;2023-12-28T14:05:58;10.70;99.90
41256;DHT22;26989;45.524;10.938;2023-12-28T14:08:25;10.80;99.90
41256;DHT22;26989;45.524;10.938;2023-12-28T14:10:52;10.70;99.90
41256;DHT22;26989;45.524;10.938;2023-12-28T14:13:19;10.70;99.90
41256;DHT22;26989;45.524;10.938;2023-12-28T14:15:46;10.70;99.90
41256;DHT22;26989;45.524;10.938;2023-12-28T14:18:13;10.70;99.90
41256;DHT22;26989;45.524;10.938;2023-12-28T14:20:40;10.50;99.90
41256;DHT22;26989;45.524;10.938;2023-12-28T14:23:07;10.40;99.90
41256;DHT22;26989;45.524;10.938;2023-12-28T14:25:35;10.30;99.90
41256;DHT22;26989;45.524;10.938;2023-12-28T14:28:04;10.20;99.90
41256;DHT22;26989;45.524;10.938;2023-12-28T14:30:31;10.20;99.90
41256;DHT22;26989;45.524;10.938;2023-12-28T14:32:59;10.20;99.90
41256;DHT22;26989;45.524;10.938;2023-12-28T14:35:27;10.20;99.90
41256;DHT22;26989;45.524;10.938;2023-12-28T14:37:55;10.10;99.90
41256;DHT22;26989;45.524;10.938;2023-12-28T14:40:22;10.10;99.90
41256;DHT22;26989;45.524;10.938;2023-12-28T14:42:49;10.10;99.90
41256;DHT22;26989;45.524;10.938;2023-12-28T14:45:16;10.00;99.90
41256;DHT22;26989;45.524;10.938;2023-12-28T14:47:43;10.00;99.90
41256;DHT22;26989;45.524;10.938;2023-12-28T14:50:10;9.90;99.90
41256;DHT22;26989;45.524;10.938;2023-12-28T14:52:37;9.90;99.90
41256;DHT22;26989;45.524;10.938;2023-12-28T14:55:09;9.80;99.90
41256;DHT22;26989;45.524;10.938;2023-12-28T14:57:36;9.70;99.90
41256;DHT22;26989;45.524;10.938;2023-12-28T15:00:05;9.60;99.90
41256;DHT22;26989;45.524;10.938;2023-12-28T15:02:32;9.60;99.90
41256;DHT22;26989;45.524;10.938;2023-12-28T15:05:00;9.50;99.90
41256;DHT22;26989;45.524;10.938;2023-12-28T15:07:27;9.50;99.90
41256;DHT22;26989;45.524;10.938;2023-12-28T15:09:54;9.40;99.90
41256;DHT22;26989;45.524;10.938;2023-12-28T15:12:23;9.40;99.90
41256;DHT22;26989;45.524;10.938;2023-12-28T15:14:51;9.30;99.90
41256;DHT22;26989;45.524;10.938;2023-12-28T15:17:18;9.30;99.90
41256;DHT22;26989;45.524;10.938;2023-12-28T15:19:45;9.20;99.90
41256;DHT22;26989;45.524;10.938;2023-12-28T15:22:12;9.20;99.90
41256;DHT22;26989;45.524;10.938;2023-12-28T15:24:40;9.10;99.90
41256;DHT22;26989;45.524;10.938;2023-12-28T15:27:07;8.90;99.90
41256;DHT22;26989;45.524;10.938;2023-12-28T15:29:34;8.90;99.90
41256;DHT22;26989;45.524;10.938;2023-12-28T15:32:01;8.90;99.90
41256;DHT22;26989;45.524;10.938;2023-12-28T15:34:28;8.80;99.90